Time;durP1;ratioP1;P1;durP2;ratioP2;P2;SDS_P1;SDS_P2;PMS_P1;PMS_P2;Temp;Humidity;BMP_temperature;BMP_pressure;BME280_temperature;BME280_humidity;BME280_pressure;Samples;Min_cycle;Max_cycle;Signal;HPM_P1;HPM_P2
2022/04/07 00:01:05;;;;;;;12.63;6.67;;;;;;;9.69;62.84;98337.22;5035572;28;20166;-87
2022/04/07 00:03:31;;;;;;;11.77;6.63;;;;;;;10.02;62.65;98408.13;5032460;28;20595;-87
2022/04/07 00:05:57;;;;;;;9.43;6.60;;;;;;;10.95;62.73;98572.00;5038595;28;20640;-87
2022/04/07 00:08:22;;;;;;;9.63;6.90;;;;;;;8.77;62.38;98188.78;5041748;28;20225;-88
2022/04/07 00:10:48;;;;;;;10.40;6.90;;;;;;;9.56;63.22;98344.38;5041901;28;20165;-86
2022/04/07 00:13:14;;;;;;;10.43;6.53;;;;;;;8.27;62.00;98090.50;5040755;28;20189;-87
2022/04/07 00:15:40;;;;;;;11.10;6.67;;;;;;;11.11;62.21;98551.38;5041413;28;20248;-89
2022/04/07 00:18:06;;;;;;;10.00;6.73;;;;;;;8.97;62.26;98199.47;5039048;28;20201;-88
2022/04/07 00:20:33;;;;;;;11.73;6.73;;;;;;;11.04;62.31;98543.56;5037826;28;20591;-89
2022/04/07 00:22:58;;;;;;;11.60;6.80;;;;;;;9.37;62.38;98257.06;5037827;28;20716;-87
2022/04/07 00:25:27;;;;;;;10.73;6.80;;;;;;;11.07;62.17;98538.59;5038646;28;20177;-90
2022/04/07 00:27:54;;;;;;;10.47;7.17;;;;;;;9.68;62.68;98322.84;5037742;28;20154;-86
2022/04/07 00:30:22;;;;;;;13.80;9.20;;;;;;;8.79;63.12;98199.75;5037586;28;20169;-88
2022/04/07 00:32:52;;;;;;;17.03;10.10;;;;;;;9.36;62.85;98288.22;5038681;28;20692;-87
2022/04/07 00:35:18;;;;;;;19.50;13.37;;;;;;;10.88;63.27;98557.44;5043603;28;20188;-88
2022/04/07 00:37:44;;;;;;;16.80;12.20;;;;;;;9.90;63.38;98380.81;5043829;28;20194;-88
2022/04/07 00:40:11;;;;;;;18.43;12.57;;;;;;;10.74;63.79;98546.06;5050856;28;20194;-89
2022/04/07 00:42:44;;;;;;;14.67;10.37;;;;;;;7.85;63.67;98067.28;5042814;28;20197;-86
2022/04/07 00:45:11;;;;;;;18.97;9.83;;;;;;;9.78;63.84;98364.44;5035085;28;20162;-86
2022/04/07 00:47:36;;;;;;;14.97;9.23;;;;;;;8.94;63.85;98227.16;5043531;28;20740;-87
2022/04/07 00:50:02;;;;;;;11.50;8.07;;;;;;;6.65;63.12;97832.59;5036469;28;20260;-88
2022/04/07 00:52:30;;;;;;;13.40;8.20;;;;;;;9.33;63.62;98303.25;5036581;28;20599;-87
2022/04/07 00:54:56;;;;;;;12.83;8.43;;;;;;;8.67;63.03;98181.75;5037095;28;20166;-86
2022/04/07 00:57:21;;;;;;;12.83;8.30;;;;;;;10.65;63.51;98520.50;5031735;28;20562;-88
2022/04/07 00:59:47;;;;;;;11.63;7.47;;;;;;;9.97;62.96;98409.66;5028356;28;20278;-88
2022/04/07 01:02:13;;;;;;;10.97;7.77;;;;;;;8.84;63.19;98205.81;5024141;28;20597;-87
2022/04/07 01:04:39;;;;;;;12.23;7.77;;;;;;;9.61;62.84;98345.38;5031904;28;20682;-87
2022/04/07 01:07:09;;;;;;;11.97;7.80;;;;;;;10.02;62.84;98406.47;5031725;28;20383;-86
2022/04/07 01:09:36;;;;;;;12.03;7.87;;;;;;;10.67;62.54;98498.63;5031373;28;20173;-86
2022/04/07 01:12:02;;;;;;;12.83;7.70;;;;;;;9.60;62.35;98339.47;5021006;28;20183;-86
2022/04/07 01:14:27;;;;;;;10.90;7.67;;;;;;;9.21;62.52;98259.94;5007520;28;20167;-85
2022/04/07 01:16:53;;;;;;;10.33;7.60;;;;;;;8.67;62.21;98161.56;4990859;28;20168;-86
2022/04/07 01:19:18;;;;;;;11.10;7.53;;;;;;;10.52;62.30;98495.66;4992285;28;20195;-87
2022/04/07 01:21:44;;;;;;;12.83;7.80;;;;;;;9.28;62.04;98287.13;4992197;28;20175;-86
2022/04/07 01:24:12;;;;;;;12.70;7.73;;;;;;;9.08;62.22;98252.81;4992621;28;20164;-87
2022/04/07 01:26:41;;;;;;;13.43;8.07;;;;;;;10.61;62.24;98511.09;5004366;28;20176;-87
2022/04/07 01:29:12;;;;;;;11.97;8.00;;;;;;;9.26;62.21;98281.13;5021025;28;20239;-86
2022/04/07 01:31:38;;;;;;;13.33;8.23;;;;;;;9.76;62.29;98377.00;4995245;28;20186;-86
2022/04/07 01:34:10;;;;;;;10.60;7.83;;;;;;;10.38;62.74;98491.84;5017888;28;20177;-87
2022/04/07 01:36:39;;;;;;;14.00;8.23;;;;;;;10.40;63.20;98480.97;5032676;28;20220;-87
2022/04/07 01:39:07;;;;;;;12.33;8.20;;;;;;;8.24;62.90;98113.09;5032103;28;20288;-86
2022/04/07 01:41:33;;;;;;;15.07;8.47;;;;;;;10.27;63.27;98460.31;5031654;28;20189;-86
2022/04/07 01:43:59;;;;;;;15.43;8.40;;;;;;;9.22;63.66;98307.13;5031524;28;20166;-86
2022/04/07 01:46:26;;;;;;;13.00;8.67;;;;;;;9.71;64.01;98383.59;5031781;28;20160;-86
2022/04/07 01:48:54;;;;;;;18.67;9.27;;;;;;;7.81;63.22;98034.38;5031526;28;20166;-86
2022/04/07 01:51:21;;;;;;;12.07;8.50;;;;;;;9.76;63.86;98381.19;5031392;28;20589;-86
2022/04/07 01:53:47;;;;;;;13.17;8.73;;;;;;;9.29;64.13;98296.38;5030012;28;20180;-85
2022/04/07 01:56:13;;;;;;;15.63;8.90;;;;;;;9.95;64.36;98444.13;5031353;28;20163;-86
2022/04/07 01:58:39;;;;;;;16.67;10.10;;;;;;;8.25;64.41;98119.81;5030491;28;20209;-85
2022/04/07 02:01:05;;;;;;;51.23;32.47;;;;;;;7.37;64.17;97973.34;5030914;28;20204;-86
2022/04/07 02:03:31;;;;;;;97.23;55.83;;;;;;;7.80;64.16;98037.72;5030826;28;20253;-87
2022/04/07 02:06:16;;;;;;;124.73;75.43;;;;;;;8.02;64.26;98080.44;5029795;28;20174;-86
2022/04/07 02:08:42;;;;;;;111.87;65.90;;;;;;;8.45;64.02;98149.09;5029216;28;20177;-86
2022/04/07 02:11:10;;;;;;;112.40;62.90;;;;;;;8.45;64.27;98144.03;5030116;28;20514;-87
2022/04/07 02:13:38;;;;;;;87.53;53.33;;;;;;;10.04;65.04;98417.47;5034406;28;20192;-86
2022/04/07 02:16:04;;;;;;;67.00;38.03;;;;;;;8.60;65.57;98184.00;5034226;28;20154;-86
2022/04/07 02:18:29;;;;;;;41.57;23.67;;;;;;;7.66;65.24;98027.19;5034308;28;20196;-86
2022/04/07 02:20:55;;;;;;;24.33;15.07;;;;;;;6.94;65.19;97927.44;5033276;28;20269;-86
2022/04/07 02:23:21;;;;;;;20.50;12.77;;;;;;;7.19;65.02;97919.91;5032475;28;20212;-85
2022/04/07 02:25:46;;;;;;;21.73;12.93;;;;;;;9.15;65.74;98258.09;5033063;28;20239;-86
2022/04/07 02:28:12;;;;;;;19.30;11.97;;;;;;;8.63;65.50;98158.88;5041747;28;20541;-85
2022/04/07 02:30:37;;;;;;;15.57;10.10;;;;;;;8.34;65.46;98130.25;5033683;28;20178;-86
2022/04/07 02:33:03;;;;;;;15.57;9.90;;;;;;;8.37;65.88;98129.47;5036222;28;20163;-86
2022/04/07 02:35:28;;;;;;;18.73;10.37;;;;;;;9.75;66.21;98374.44;5034416;28;20257;-84
2022/04/07 02:37:54;;;;;;;15.47;10.27;;;;;;;7.98;66.49;98066.88;5034227;28;20202;-86
2022/04/07 02:40:19;;;;;;;17.10;10.10;;;;;;;9.28;65.61;98261.88;5033740;28;20270;-87
2022/04/07 02:42:44;;;;;;;19.23;10.80;;;;;;;9.84;66.18;98382.28;5034133;28;20178;-86
2022/04/07 02:45:10;;;;;;;19.70;10.80;;;;;;;7.58;66.85;98004.25;5035417;28;20257;-86
2022/04/07 02:47:38;;;;;;;19.40;11.40;;;;;;;7.99;67.00;98062.69;5032577;28;20230;-86
2022/04/07 02:50:04;;;;;;;17.03;11.00;;;;;;;8.93;68.02;98252.34;5033818;28;20166;-87
2022/04/07 02:52:30;;;;;;;17.77;11.63;;;;;;;8.15;68.89;98108.59;5033762;28;20181;-85
2022/04/07 02:54:55;;;;;;;23.63;12.23;;;;;;;9.21;68.81;98302.88;5032834;28;20174;-88
2022/04/07 02:57:25;;;;;;;19.83;11.43;;;;;;;6.74;68.80;97838.75;5033594;28;20173;-86
2022/04/07 02:59:51;;;;;;;19.90;10.90;;;;;;;9.32;69.20;98271.22;5037124;28;20192;-85
2022/04/07 03:02:17;;;;;;;18.83;11.23;;;;;;;9.23;68.43;98268.44;5035344;28;20173;-86
2022/04/07 03:04:42;;;;;;;16.47;11.43;;;;;;;8.12;67.58;98058.09;5036959;28;20166;-84
2022/04/07 03:07:07;;;;;;;19.10;11.43;;;;;;;8.37;67.35;98095.03;5058441;28;20213;-86
2022/04/07 03:09:33;;;;;;;19.67;11.70;;;;;;;10.08;66.96;98358.59;5043903;28;20178;-85
2022/04/07 03:11:58;;;;;;;20.10;12.13;;;;;;;9.39;66.58;98228.50;5035043;28;20177;-86
2022/04/07 03:14:27;;;;;;;19.73;11.13;;;;;;;10.04;67.17;98339.09;5033085;28;20733;-88
2022/04/07 03:16:53;;;;;;;18.17;11.40;;;;;;;8.87;65.81;98099.09;5034189;28;20647;-87
2022/04/07 03:19:19;;;;;;;18.70;11.20;;;;;;;10.16;66.50;98308.28;5033528;28;20272;-85
2022/04/07 03:21:44;;;;;;;19.80;11.17;;;;;;;8.74;66.80;98087.75;5032353;28;20260;-86
2022/04/07 03:24:11;;;;;;;19.17;11.40;;;;;;;7.46;66.79;97889.72;5033515;28;20177;-88
2022/04/07 03:26:37;;;;;;;18.77;11.07;;;;;;;8.53;66.80;98072.00;5033679;28;20311;-87
2022/04/07 03:29:03;;;;;;;18.77;11.10;;;;;;;8.51;66.13;98055.13;5033369;28;20185;-86
2022/04/07 03:31:28;;;;;;;17.60;11.17;;;;;;;9.05;66.09;98127.38;5035812;28;20196;-87
2022/04/07 03:33:54;;;;;;;17.37;10.87;;;;;;;10.13;66.47;98325.91;5039382;28;20220;-87
2022/04/07 03:36:19;;;;;;;18.47;11.07;;;;;;;8.94;66.74;98143.88;5013192;28;20190;-87
2022/04/07 03:38:45;;;;;;;15.73;10.87;;;;;;;7.42;65.80;97847.63;5012938;28;20272;-87
2022/04/07 03:41:11;;;;;;;18.50;11.20;;;;;;;10.22;65.63;98317.72;5045017;28;20246;-87
2022/04/07 03:43:37;;;;;;;18.83;11.57;;;;;;;10.23;66.46;98322.78;5013558;28;20167;-87
2022/04/07 03:46:02;;;;;;;20.17;11.50;;;;;;;10.12;66.61;98316.56;5010794;28;20168;-87
2022/04/07 03:48:28;;;;;;;18.47;11.53;;;;;;;8.16;66.94;98006.09;5003771;28;20706;-86
2022/04/07 03:50:53;;;;;;;19.57;11.90;;;;;;;7.62;67.06;97930.53;5002366;28;20695;-87
2022/04/07 03:53:19;;;;;;;19.10;11.57;;;;;;;9.30;65.97;98169.31;5048305;28;20302;-88
2022/04/07 03:55:44;;;;;;;18.27;11.37;;;;;;;8.22;65.20;97988.66;5016644;28;20172;-86
2022/04/07 03:58:09;;;;;;;20.90;11.47;;;;;;;8.93;65.33;98066.44;5015665;28;20555;-87
2022/04/07 04:00:35;;;;;;;20.37;11.37;;;;;;;9.44;65.02;98170.56;5013755;28;20166;-86
2022/04/07 04:03:00;;;;;;;19.13;11.97;;;;;;;6.47;65.94;97692.06;5013336;28;20170;-87
2022/04/07 04:05:26;;;;;;;18.17;11.73;;;;;;;8.58;66.19;98084.75;5012654;28;20209;-87
2022/04/07 04:07:51;;;;;;;23.67;11.77;;;;;;;7.95;66.79;97933.25;5012488;28;20161;-86
2022/04/07 04:10:17;;;;;;;21.60;11.97;;;;;;;9.44;65.83;98175.63;5041995;28;20648;-87
2022/04/07 04:12:43;;;;;;;16.50;11.20;;;;;;;10.15;66.42;98282.94;4993090;28;20171;-88
2022/04/07 04:15:09;;;;;;;18.50;11.60;;;;;;;8.42;65.22;97961.53;4993254;28;20167;-86
2022/04/07 04:17:34;;;;;;;21.93;12.47;;;;;;;9.61;65.75;98174.44;4991752;28;20199;-85
2022/04/07 04:20:00;;;;;;;23.73;12.63;;;;;;;9.30;65.04;98147.47;5008247;28;20539;-88
2022/04/07 04:22:26;;;;;;;19.77;12.10;;;;;;;8.47;64.50;98036.50;4993255;28;20160;-87
2022/04/07 04:24:51;;;;;;;40.67;25.57;;;;;;;7.69;65.60;97868.66;4993189;28;20167;-86
2022/04/07 04:27:17;;;;;;;23.27;14.60;;;;;;;10.13;65.53;98274.47;5008090;28;20679;-87
2022/04/07 04:29:43;;;;;;;20.63;12.83;;;;;;;9.09;65.32;98116.53;4992640;28;20159;-87
2022/04/07 04:32:09;;;;;;;20.00;12.37;;;;;;;7.99;64.40;97904.81;4992784;28;20189;-87
2022/04/07 04:34:35;;;;;;;20.43;11.97;;;;;;;10.24;64.46;98283.19;4992213;28;20624;-88
2022/04/07 04:37:00;;;;;;;20.63;12.00;;;;;;;10.19;64.17;98282.22;4992944;28;20175;-88
2022/04/07 04:39:26;;;;;;;20.83;13.23;;;;;;;9.09;63.82;98091.28;4992591;28;20195;-88
2022/04/07 04:41:51;;;;;;;27.37;14.90;;;;;;;7.62;64.28;97857.53;4993406;28;20596;-87
2022/04/07 04:44:17;;;;;;;28.07;15.63;;;;;;;8.82;64.58;98071.19;4992935;28;20242;-87
2022/04/07 04:46:42;;;;;;;37.03;19.23;;;;;;;8.88;65.06;98099.13;4991968;28;20245;-88
2022/04/07 04:49:08;;;;;;;34.40;17.50;;;;;;;8.61;64.97;98030.19;5017758;28;20264;-87
2022/04/07 04:51:33;;;;;;;26.47;14.47;;;;;;;8.93;64.73;98058.03;5020124;28;20711;-87
2022/04/07 04:53:58;;;;;;;45.53;21.23;;;;;;;7.74;63.43;97872.16;4978513;28;20246;-88
2022/04/07 04:56:27;;;;;;;39.30;18.83;;;;;;;9.18;63.05;98043.59;5012591;28;20237;-87
2022/04/07 04:58:53;;;;;;;25.73;13.73;;;;;;;10.70;61.92;98278.50;5012485;28;20214;-86
2022/04/07 05:01:18;;;;;;;22.30;12.17;;;;;;;9.33;60.41;97991.00;5031352;28;20585;-87
2022/04/07 05:03:43;;;;;;;23.80;12.83;;;;;;;10.79;59.81;98238.25;5027334;28;20178;-87
2022/04/07 05:06:09;;;;;;;20.13;12.33;;;;;;;9.73;59.67;98073.69;5011919;28;20178;-86
2022/04/07 05:08:34;;;;;;;25.40;13.13;;;;;;;9.71;59.87;98041.59;5012269;28;20166;-88
2022/04/07 05:10:59;;;;;;;20.37;12.30;;;;;;;7.88;60.77;97809.59;5017275;28;20630;-87
2022/04/07 05:13:25;;;;;;;32.87;17.67;;;;;;;9.08;61.02;97995.34;5013446;28;20179;-87
2022/04/07 05:15:50;;;;;;;39.40;20.27;;;;;;;8.87;60.60;97918.25;5012365;28;20163;-88
2022/04/07 05:18:16;;;;;;;22.50;12.77;;;;;;;9.40;59.99;98030.72;5012257;28;20199;-88
2022/04/07 05:20:41;;;;;;;22.77;13.07;;;;;;;9.69;58.64;98060.94;5012872;28;20162;-88
2022/04/07 05:23:07;;;;;;;19.77;12.73;;;;;;;10.58;58.31;98166.84;5011064;28;20677;-89
2022/04/07 05:25:32;;;;;;;20.77;13.07;;;;;;;11.06;57.80;98203.44;5012443;28;20174;-88
2022/04/07 05:27:57;;;;;;;21.87;12.90;;;;;;;10.67;56.87;98113.91;5016534;28;20303;-89
2022/04/07 05:30:23;;;;;;;20.73;12.43;;;;;;;8.59;56.86;97773.72;5022163;28;20182;-88
2022/04/07 05:32:48;;;;;;;22.03;13.03;;;;;;;9.00;56.99;97812.56;5035108;28;20178;-87
2022/04/07 05:35:15;;;;;;;24.13;13.23;;;;;;;11.25;56.59;98170.06;5035581;28;20203;-87
2022/04/07 05:37:41;;;;;;;20.27;12.70;;;;;;;9.65;56.48;97902.50;5022452;28;20670;-86
2022/04/07 05:40:10;;;;;;;19.43;12.73;;;;;;;8.50;56.61;97698.69;5017467;28;20163;-87
2022/04/07 05:42:36;;;;;;;22.57;13.03;;;;;;;11.54;56.61;98228.09;5016345;28;20546;-89
2022/04/07 05:45:02;;;;;;;22.63;13.50;;;;;;;8.93;56.25;97790.56;5017100;28;20174;-89
2022/04/07 05:47:27;;;;;;;22.10;13.90;;;;;;;11.14;57.29;98206.97;5020362;28;20218;-87
2022/04/07 05:49:56;;;;;;;25.43;14.23;;;;;;;8.91;57.35;97833.41;5015439;28;20626;-88
2022/04/07 05:52:22;;;;;;;24.60;13.50;;;;;;;9.34;56.75;97889.16;5007075;28;20665;-88
2022/04/07 05:54:48;;;;;;;24.70;13.20;;;;;;;9.92;57.21;97979.78;5022688;28;20177;-87
2022/04/07 05:57:13;;;;;;;23.13;14.50;;;;;;;9.62;57.04;97890.66;5023581;28;20195;-89
2022/04/07 05:59:39;;;;;;;26.63;13.93;;;;;;;10.80;57.00;98097.31;5022854;28;20167;-89
2022/04/07 06:02:04;;;;;;;24.37;14.07;;;;;;;10.83;56.66;98072.06;5020446;28;20654;-87
2022/04/07 06:04:30;;;;;;;24.70;14.37;;;;;;;11.08;56.29;98115.66;5016972;28;20187;-88
2022/04/07 06:06:55;;;;;;;24.33;13.70;;;;;;;8.64;57.04;97755.38;5026021;28;20209;-88
2022/04/07 06:09:20;;;;;;;23.60;13.63;;;;;;;10.85;56.10;98040.91;5037422;28;20264;-88
2022/04/07 06:11:46;;;;;;;21.20;13.87;;;;;;;11.80;55.67;98201.63;5028322;28;20255;-88
2022/04/07 06:14:11;;;;;;;21.97;13.87;;;;;;;9.10;55.33;97737.09;5024827;28;20264;-87
2022/04/07 06:16:37;;;;;;;26.53;13.63;;;;;;;8.46;55.31;97635.56;5029924;28;20270;-90
2022/04/07 06:19:02;;;;;;;26.60;13.77;;;;;;;11.31;54.90;98087.41;5045112;28;20205;-88
2022/04/07 06:21:31;;;;;;;24.37;13.27;;;;;;;7.68;55.71;97545.44;5042996;28;20194;-89
2022/04/07 06:23:57;;;;;;;23.40;13.63;;;;;;;9.57;55.97;97829.06;5026636;28;20213;-91
2022/04/07 06:26:23;;;;;;;29.20;13.90;;;;;;;11.73;55.90;98160.06;5023769;28;20183;-88
2022/04/07 06:28:55;;;;;;;23.40;14.17;;;;;;;10.44;55.30;97931.25;5019082;28;20205;-90
2022/04/07 06:31:20;;;;;;;23.73;13.67;;;;;;;8.80;54.66;97618.69;5033772;28;20182;-87
2022/04/07 06:33:46;;;;;;;23.87;13.27;;;;;;;10.03;55.05;97839.34;5020350;28;20205;-88
2022/04/07 06:36:11;;;;;;;28.30;13.90;;;;;;;11.71;55.19;98161.75;5030947;28;20236;-88
2022/04/07 06:38:37;;;;;;;20.93;13.63;;;;;;;11.76;55.43;98151.69;5026320;28;20237;-89
2022/04/07 06:41:02;;;;;;;23.70;13.83;;;;;;;10.65;54.87;97928.31;5029894;28;20182;-88
2022/04/07 06:43:28;;;;;;;22.63;13.40;;;;;;;10.43;54.58;97916.06;5025937;28;20186;-88
2022/04/07 06:45:53;;;;;;;23.93;13.60;;;;;;;10.17;54.62;97823.63;5023997;28;20197;-89
2022/04/07 06:48:19;;;;;;;21.80;13.57;;;;;;;8.24;54.40;97493.03;5022482;28;20264;-88
2022/04/07 06:50:45;;;;;;;21.47;12.73;;;;;;;9.54;54.08;97727.09;5027793;28;20219;-89
2022/04/07 06:53:14;;;;;;;25.37;13.77;;;;;;;10.77;55.07;97918.41;5006541;28;20407;-89
2022/04/07 06:55:40;;;;;;;27.07;13.73;;;;;;;10.58;54.41;97860.69;5019343;28;20182;-89
2022/04/07 06:58:08;;;;;;;26.40;14.47;;;;;;;10.86;54.07;97875.53;5034059;28;20201;-89
2022/04/07 07:00:40;;;;;;;23.13;13.87;;;;;;;12.22;54.13;98106.00;5030152;28;20708;-89
2022/04/07 07:03:05;;;;;;;26.93;14.23;;;;;;;10.93;55.40;97985.38;5027419;28;20198;-90
2022/04/07 07:05:33;;;;;;;23.27;14.03;;;;;;;11.17;55.89;98032.28;5018991;28;20186;-90
2022/04/07 07:08:20;;;;;;;24.73;14.40;;;;;;;11.87;55.97;98104.56;5007698;28;20186;-88
2022/04/07 07:10:49;;;;;;;24.57;15.13;;;;;;;11.86;56.17;98090.19;5017793;28;20185;-91
2022/04/07 07:13:22;;;;;;;23.43;14.37;;;;;;;12.30;54.47;98081.63;5034518;28;20178;-88
2022/04/07 07:15:48;;;;;;;21.97;14.00;;;;;;;11.65;53.48;97907.25;5020358;28;20171;-89
2022/04/07 07:18:14;;;;;;;27.40;15.00;;;;;;;11.60;53.99;97964.63;5025027;28;20214;-90
2022/04/07 07:20:39;;;;;;;21.73;14.27;;;;;;;12.09;55.04;98065.19;5030487;28;20199;-89
2022/04/07 07:23:06;;;;;;;22.57;14.03;;;;;;;12.38;52.96;97981.09;5032596;28;20279;-89
2022/04/07 07:25:31;;;;;;;24.97;14.70;;;;;;;12.69;51.20;97948.47;5024087;28;20571;-90
2022/04/07 07:28:02;;;;;;;22.33;14.60;;;;;;;13.32;51.81;98066.09;5028713;28;20208;-89
2022/04/07 07:30:28;;;;;;;24.97;15.17;;;;;;;11.56;52.26;97801.56;5039759;28;20213;-89
2022/04/07 07:32:54;;;;;;;29.47;14.40;;;;;;;10.64;51.89;97671.03;5036016;28;20233;-89
2022/04/07 07:35:21;;;;;;;24.17;14.83;;;;;;;11.14;51.82;97715.66;5024894;28;20185;-88
2022/04/07 07:37:55;;;;;;;25.60;14.77;;;;;;;13.20;51.77;98058.34;5034578;28;20199;-89
2022/04/07 07:40:24;;;;;;;22.60;14.50;;;;;;;13.66;50.88;98051.19;5023904;28;20666;-89
2022/04/07 07:42:53;;;;;;;25.83;15.57;;;;;;;12.52;49.78;97768.06;5016976;28;20297;-88
2022/04/07 07:45:18;;;;;;;25.17;14.67;;;;;;;13.10;49.15;97830.44;5024615;28;20209;-90
2022/04/07 07:47:44;;;;;;;22.53;14.00;;;;;;;11.88;47.81;97543.41;5022183;28;20751;-88
2022/04/07 07:50:10;;;;;;;24.37;14.33;;;;;;;15.46;46.32;98032.88;5027468;28;20277;-89
2022/04/07 07:52:36;;;;;;;25.43;14.63;;;;;;;14.33;45.40;97800.66;5015037;28;20205;-89
2022/04/07 07:55:01;;;;;;;25.40;13.50;;;;;;;16.06;44.48;98034.63;5020159;28;20214;-88
2022/04/07 07:57:27;;;;;;;22.13;13.80;;;;;;;15.50;44.92;98044.75;5032804;28;20225;-89
2022/04/07 07:59:52;;;;;;;21.67;14.43;;;;;;;12.63;45.90;97641.25;5038809;28;20173;-87
2022/04/07 08:02:18;;;;;;;22.23;14.23;;;;;;;12.74;46.21;97703.97;5036098;28;20198;-88
2022/04/07 08:04:44;;;;;;;21.20;13.77;;;;;;;12.25;46.15;97583.41;5017748;28;20623;-89
2022/04/07 08:07:10;;;;;;;22.00;14.23;;;;;;;12.31;46.69;97638.44;5026132;28;20237;-91
2022/04/07 08:09:35;;;;;;;22.57;13.87;;;;;;;13.08;48.05;97837.16;5029798;28;20214;-90
2022/04/07 08:12:02;;;;;;;20.87;13.60;;;;;;;12.20;46.77;97615.50;5021541;28;20557;-89
2022/04/07 08:14:28;;;;;;;21.50;13.73;;;;;;;13.41;47.15;97778.13;5039126;28;20653;-90
2022/04/07 08:16:53;;;;;;;22.87;13.80;;;;;;;14.49;46.22;97924.59;5025676;28;20196;-89
2022/04/07 08:19:20;;;;;;;21.03;13.67;;;;;;;14.97;46.21;98028.41;5022360;28;20205;-90
2022/04/07 08:21:45;;;;;;;23.63;13.97;;;;;;;12.59;47.10;97683.50;5022461;28;20631;-89
2022/04/07 08:24:11;;;;;;;29.63;14.03;;;;;;;11.73;47.68;97560.97;5018704;28;20198;-89
2022/04/07 08:26:36;;;;;;;24.33;13.87;;;;;;;14.32;48.18;98044.16;5030456;28;20197;-89
2022/04/07 08:29:02;;;;;;;24.40;14.33;;;;;;;13.93;48.27;97965.81;5011447;28;20703;-89
2022/04/07 08:31:27;;;;;;;23.60;14.90;;;;;;;13.47;49.62;97982.38;5024963;28;20182;-90
2022/04/07 08:33:53;;;;;;;22.57;13.57;;;;;;;11.74;49.93;97646.34;5017872;28;20228;-89
2022/04/07 08:36:19;;;;;;;21.83;14.17;;;;;;;12.93;49.16;97794.69;5020277;28;20221;-88
2022/04/07 08:38:44;;;;;;;26.27;14.40;;;;;;;13.62;49.26;97900.31;5012919;28;20210;-88
2022/04/07 08:41:11;;;;;;;21.57;13.57;;;;;;;13.33;48.65;97780.63;5028222;28;20186;-89
2022/04/07 08:43:39;;;;;;;25.17;14.77;;;;;;;14.34;48.78;97983.91;5025815;28;20209;-89
2022/04/07 08:46:11;;;;;;;25.17;15.60;;;;;;;14.33;48.92;97958.47;5012524;28;20670;-89
2022/04/07 08:48:44;;;;;;;22.90;15.00;;;;;;;13.00;48.67;97714.28;5017917;28;20226;-87
2022/04/07 08:51:11;;;;;;;24.23;14.40;;;;;;;12.85;48.90;97709.13;5042879;28;20307;-86
2022/04/07 08:53:38;;;;;;;26.00;15.17;;;;;;;14.06;50.14;97933.69;5019377;28;20609;-87
2022/04/07 08:56:05;;;;;;;21.87;13.93;;;;;;;13.04;49.25;97736.34;5012337;28;20233;-88
2022/04/07 08:58:31;;;;;;;23.20;15.60;;;;;;;12.98;48.94;97710.91;5010641;28;20214;-89
2022/04/07 09:00:56;;;;;;;26.73;14.33;;;;;;;11.83;48.56;97448.72;5028662;28;20235;-88
2022/04/07 09:03:22;;;;;;;22.93;14.70;;;;;;;15.04;47.76;97890.81;5026906;28;20235;-88
2022/04/07 09:05:53;;;;;;;25.27;15.60;;;;;;;14.32;47.67;97763.28;5018452;28;20560;-88
2022/04/07 09:08:19;;;;;;;23.77;15.10;;;;;;;13.19;47.42;97568.78;5003596;28;20194;-88
2022/04/07 09:10:54;;;;;;;21.70;14.87;;;;;;;12.92;46.43;97479.75;5008237;28;20269;-90
2022/04/07 09:13:19;;;;;;;22.07;14.57;;;;;;;13.22;46.60;97517.97;5010651;28;20684;-87
2022/04/07 09:15:45;;;;;;;24.63;15.80;;;;;;;15.03;45.98;97819.44;5020485;28;20273;-87
2022/04/07 09:18:10;;;;;;;29.73;16.07;;;;;;;14.63;46.72;97754.88;5019760;28;20237;-88
2022/04/07 09:20:42;;;;;;;25.23;15.63;;;;;;;13.86;46.84;97635.09;5016927;28;20252;-89
2022/04/07 09:23:11;;;;;;;28.03;16.60;;;;;;;12.74;46.96;97446.69;5016914;28;20189;-89
2022/04/07 09:25:44;;;;;;;26.07;16.57;;;;;;;14.87;47.54;97799.91;5028846;28;20186;-88
2022/04/07 09:28:11;;;;;;;25.13;16.13;;;;;;;14.44;47.66;97726.00;5016123;28;20190;-88
2022/04/07 09:30:41;;;;;;;25.13;15.17;;;;;;;13.78;47.38;97690.16;5034012;28;20555;-90
2022/04/07 09:33:20;;;;;;;21.83;14.30;;;;;;;14.01;48.50;97808.97;5035282;28;20570;-87
2022/04/07 09:36:06;;;;;;;21.97;14.40;;;;;;;14.17;48.89;97825.16;5025687;28;20181;-89
2022/04/07 09:38:35;;;;;;;24.23;14.70;;;;;;;14.29;48.77;97812.47;5015917;28;20206;-87
2022/04/07 09:41:11;;;;;;;26.37;15.37;;;;;;;14.63;48.18;97838.94;5010776;28;20225;-89
2022/04/07 09:43:53;;;;;;;26.03;14.80;;;;;;;14.47;47.67;97819.38;5013679;28;20643;-89
2022/04/07 09:46:20;;;;;;;28.00;14.13;;;;;;;14.34;46.87;97767.53;5017582;28;20733;-88
2022/04/07 09:49:02;;;;;;;22.60;15.20;;;;;;;14.50;47.24;97821.91;5021085;28;20682;-88
2022/04/07 09:51:28;;;;;;;24.03;14.50;;;;;;;14.51;47.26;97832.09;5020267;28;20187;-87
2022/04/07 09:53:56;;;;;;;29.23;19.47;;;;;;;14.30;47.76;97768.38;5015115;28;20690;-88
2022/04/07 09:56:26;;;;;;;36.13;19.33;;;;;;;14.53;47.63;97793.94;5032431;28;20265;-90
2022/04/07 09:58:53;;;;;;;30.70;16.80;;;;;;;13.72;47.37;97626.56;5014048;28;20210;-88
2022/04/07 10:01:19;;;;;;;31.17;16.10;;;;;;;15.41;46.08;97837.31;5017944;28;20609;-90
2022/04/07 10:03:44;;;;;;;28.07;16.67;;;;;;;15.25;46.19;97775.25;5032452;28;20186;-88
2022/04/07 10:06:14;;;;;;;25.53;16.60;;;;;;;13.40;45.37;97420.63;5019915;28;20186;-88
2022/04/07 10:08:41;;;;;;;22.23;14.93;;;;;;;15.44;44.24;97685.13;5025524;28;20196;-87
2022/04/07 10:11:08;;;;;;;23.00;14.40;;;;;;;14.38;44.40;97466.34;5025297;28;20252;-89
2022/04/07 10:13:36;;;;;;;25.10;15.47;;;;;;;16.62;43.43;97778.25;5034962;28;20182;-89
2022/04/07 10:16:03;;;;;;;24.93;15.70;;;;;;;16.15;42.57;97654.19;5020430;28;20209;-88
2022/04/07 10:18:39;;;;;;;22.30;16.03;;;;;;;14.51;43.42;97419.63;5032284;28;20694;-89
2022/04/07 10:21:10;;;;;;;26.90;15.63;;;;;;;16.98;42.84;97755.81;5032038;28;20280;-89
2022/04/07 10:24:06;;;;;;;26.97;16.13;;;;;;;16.45;42.65;97687.19;5038535;28;20222;-86
2022/04/07 10:26:32;;;;;;;20.30;12.80;;;;;;;15.40;42.78;97511.78;5006151;28;20195;-88
2022/04/07 10:28:58;;;;;;;24.23;15.80;;;;;;;15.23;43.85;97557.75;4998438;28;20205;-86
2022/04/07 10:31:25;;;;;;;26.53;15.37;;;;;;;14.85;44.35;97501.00;4986275;28;20210;-88
2022/04/07 10:33:51;;;;;;;25.47;14.70;;;;;;;16.13;43.25;97647.41;5018782;28;20167;-88
2022/04/07 10:36:18;;;;;;;22.90;14.47;;;;;;;16.73;43.23;97733.03;4985976;28;20717;-88
2022/04/07 10:38:47;;;;;;;25.03;15.40;;;;;;;16.16;43.76;97670.38;4977847;28;20281;-89
2022/04/07 10:41:35;;;;;;;26.60;17.00;;;;;;;16.82;43.35;97744.03;5000668;28;20293;-88
2022/04/07 10:44:17;;;;;;;28.83;17.93;;;;;;;17.04;43.03;97734.47;5010034;28;20222;-89
2022/04/07 10:46:43;;;;;;;27.07;16.43;;;;;;;16.54;43.02;97648.00;4998022;28;20258;-88
2022/04/07 10:49:10;;;;;;;24.73;15.60;;;;;;;16.77;42.75;97704.03;4987995;28;20274;-87
2022/04/07 10:52:07;;;;;;;24.23;15.57;;;;;;;15.12;42.72;97458.41;4980612;28;20278;-90
2022/04/07 10:54:32;;;;;;;25.90;15.37;;;;;;;14.63;42.63;97361.00;4908004;28;20265;-88
2022/04/07 10:57:00;;;;;;;26.13;14.43;;;;;;;14.93;43.68;97506.91;4917533;29;20285;-88
2022/04/07 10:59:27;;;;;;;26.47;16.63;;;;;;;16.71;42.97;97783.28;4915252;29;20221;-89
2022/04/07 11:02:07;;;;;;;22.90;14.67;;;;;;;15.53;43.95;97608.63;4916833;29;20221;-90
2022/04/07 11:05:08;;;;;;;29.33;17.50;;;;;;;16.70;43.97;97759.44;4939489;29;20189;-88
2022/04/07 11:07:50;;;;;;;29.00;15.50;;;;;;;16.64;43.76;97716.06;4937099;29;20224;-88
2022/04/07 11:10:16;;;;;;;23.93;14.83;;;;;;;17.41;42.35;97725.59;4920436;29;20197;-88
2022/04/07 11:12:59;;;;;;;26.50;15.83;;;;;;;18.05;41.33;97728.28;4933569;29;20705;-89
2022/04/07 11:15:33;;;;;;;25.80;15.00;;;;;;;17.58;41.48;97687.91;4944486;28;20244;-88
2022/04/07 11:18:14;;;;;;;24.90;16.60;;;;;;;17.89;41.73;97731.06;4956299;28;20208;-88
2022/04/07 11:21:00;;;;;;;29.30;14.47;;;;;;;17.79;41.62;97730.34;4954136;29;20223;-88
2022/04/07 11:23:41;;;;;;;28.27;14.47;;;;;;;16.78;43.33;97729.59;4939537;29;20773;-88